Time;durP1;ratioP1;P1;durP2;ratioP2;P2;SDS_P1;SDS_P2;PMS_P1;PMS_P2;Temp;Humidity;BMP_temperature;BMP_pressure;BME280_temperature;BME280_humidity;BME280_pressure;Samples;Min_cycle;Max_cycle;Signal;HPM_P1;HPM_P2
2021/06/08 00:01:05;;;;;;;20.20;15.33;;;17.50;73.00;;;;;;5012211;28;20476;-76
2021/06/08 00:03:31;;;;;;;21.20;15.70;;;17.80;70.00;;;;;;5011293;28;20403;-76
2021/06/08 00:05:57;;;;;;;17.67;14.63;;;18.10;66.50;;;;;;4993954;28;20443;-76
2021/06/08 00:08:23;;;;;;;19.58;15.43;;;18.10;66.80;;;;;;5006709;28;20787;-76
2021/06/08 00:10:49;;;;;;;18.15;15.27;;;18.10;66.90;;;;;;4994249;28;20422;-77
2021/06/08 00:13:14;;;;;;;18.60;14.55;;;18.10;66.50;;;;;;5009269;28;20430;-76
2021/06/08 00:15:40;;;;;;;20.15;14.77;;;18.00;66.80;;;;;;5011455;28;20761;-77
2021/06/08 00:18:06;;;;;;;19.52;15.80;;;18.00;66.60;;;;;;4993669;28;20381;-77
2021/06/08 00:20:31;;;;;;;22.43;16.10;;;17.80;67.70;;;;;;5011473;28;20388;-76
2021/06/08 00:22:57;;;;;;;19.60;15.30;;;17.70;69.60;;;;;;5010367;28;20454;-77
2021/06/08 00:28:45;;;;;;;19.52;15.95;;;17.80;66.80;;;;;;5011568;28;20368;-75
2021/06/08 00:31:10;;;;;;;21.97;17.07;;;17.50;70.60;;;;;;5011124;28;20409;-76
2021/06/08 00:33:36;;;;;;;21.20;17.30;;;17.40;72.30;;;;;;4996222;28;20484;-76
2021/06/08 00:36:01;;;;;;;20.73;16.48;;;17.20;72.80;;;;;;4991569;28;20425;-76
2021/06/08 00:38:27;;;;;;;26.45;17.58;;;16.90;76.50;;;;;;5007759;28;20404;-76
2021/06/08 00:40:53;;;;;;;20.97;16.93;;;17.00;76.80;;;;;;5011162;28;20417;-76
2021/06/08 00:43:25;;;;;;;24.63;17.97;;;16.80;78.00;;;;;;5010504;28;20478;-76
2021/06/08 00:45:52;;;;;;;26.92;18.38;;;16.80;78.00;;;;;;5010496;28;20377;-75
2021/06/08 00:48:18;;;;;;;25.55;17.98;;;16.80;78.80;;;;;;5011071;28;20433;-75
2021/06/08 00:50:44;;;;;;;23.02;17.92;;;16.80;79.50;;;;;;5010725;28;20535;-76
2021/06/08 00:53:10;;;;;;;26.05;17.88;;;16.60;80.80;;;;;;5010280;28;20977;-76
2021/06/08 00:55:35;;;;;;;22.30;18.60;;;16.50;81.60;;;;;;5010802;28;20404;-76
2021/06/08 00:58:01;;;;;;;21.97;18.07;;;16.50;82.90;;;;;;5010875;28;20860;-76
2021/06/08 01:00:28;;;;;;;22.30;18.52;;;16.30;84.10;;;;;;5010876;28;20470;-76
2021/06/08 01:02:54;;;;;;;28.20;19.43;;;16.20;85.70;;;;;;5010150;28;20655;-76
2021/06/08 01:05:19;;;;;;;27.10;18.63;;;16.20;85.50;;;;;;4990901;28;20429;-76
2021/06/08 01:07:45;;;;;;;23.42;19.17;;;16.40;83.90;;;;;;4991250;28;20406;-77
2021/06/08 01:10:12;;;;;;;27.33;18.88;;;16.40;83.70;;;;;;5010066;28;20404;-76
2021/06/08 01:12:38;;;;;;;27.85;19.00;;;16.30;84.20;;;;;;4976169;28;20717;-76
2021/06/08 01:15:04;;;;;;;24.63;18.83;;;16.30;85.00;;;;;;4991265;28;20398;-76
2021/06/08 01:17:30;;;;;;;26.70;18.42;;;16.20;86.50;;;;;;4992466;28;20425;-76
2021/06/08 01:19:57;;;;;;;22.27;18.38;;;16.30;85.20;;;;;;4991769;28;20394;-76
2021/06/08 01:22:23;;;;;;;24.75;18.70;;;16.30;84.40;;;;;;4991980;28;20397;-76
2021/06/08 01:24:52;;;;;;;22.58;18.60;;;16.20;84.90;;;;;;5007015;28;20436;-76
2021/06/08 01:27:20;;;;;;;27.30;19.52;;;16.10;85.60;;;;;;4992987;28;20400;-76
2021/06/08 01:29:47;;;;;;;28.67;20.50;;;15.90;88.20;;;;;;5010556;28;20388;-75
2021/06/08 01:32:13;;;;;;;25.23;19.45;;;16.00;86.90;;;;;;5009698;28;20535;-75
2021/06/08 01:34:39;;;;;;;25.70;19.17;;;15.80;88.60;;;;;;4995607;28;20390;-75
2021/06/08 01:37:05;;;;;;;24.23;18.90;;;15.80;90.40;;;;;;4995684;28;20816;-75
2021/06/08 01:39:36;;;;;;;26.13;20.08;;;15.80;90.30;;;;;;5010415;28;20478;-76
2021/06/08 01:42:03;;;;;;;26.15;19.88;;;15.70;90.00;;;;;;5010478;28;20420;-76
2021/06/08 01:44:29;;;;;;;26.58;20.48;;;15.60;90.80;;;;;;5009878;28;20428;-77
2021/06/08 01:46:55;;;;;;;27.20;19.52;;;15.60;91.90;;;;;;5010866;28;20396;-75
2021/06/08 01:49:20;;;;;;;22.03;18.13;;;15.80;90.40;;;;;;4993341;28;20923;-75
2021/06/08 01:52:13;;;;;;;25.70;18.77;;;15.90;89.00;;;;;;5002422;28;20413;-75
2021/06/08 01:54:44;;;;;;;25.02;19.70;;;15.80;88.60;;;;;;5010304;28;20373;-74
2021/06/08 01:57:51;;;;;;;27.40;20.42;;;15.60;90.20;;;;;;5012921;28;20753;-75
2021/06/08 02:00:25;;;;;;;24.90;19.85;;;15.40;91.50;;;;;;4977150;28;20404;-74
2021/06/08 02:03:04;;;;;;;25.85;21.75;;;15.20;93.70;;;;;;4994231;28;20548;-74
2021/06/08 02:05:40;;;;;;;28.80;20.98;;;15.40;94.40;;;;;;4994092;28;20931;-75
2021/06/08 02:08:15;;;;;;;26.52;19.52;;;15.50;92.50;;;;;;4996757;28;20757;-74
2021/06/08 02:10:59;;;;;;;26.00;19.50;;;15.60;91.10;;;;;;4995852;28;20445;-75
2021/06/08 02:13:52;;;;;;;25.23;20.15;;;15.60;91.10;;;;;;5013469;28;20892;-75
2021/06/08 02:16:26;;;;;;;28.63;20.58;;;15.50;92.10;;;;;;5013650;28;20381;-75
2021/06/08 02:18:52;;;;;;;26.40;20.75;;;15.30;92.40;;;;;;5013350;28;20397;-74
2021/06/08 02:21:23;;;;;;;25.30;19.55;;;15.20;94.10;;;;;;5014629;28;20443;-74
2021/06/08 02:23:53;;;;;;;27.53;21.73;;;15.30;94.30;;;;;;5014895;28;20419;-74
2021/06/08 02:26:19;;;;;;;30.45;22.40;;;15.30;93.90;;;;;;5014436;28;20483;-75
2021/06/08 02:28:46;;;;;;;28.17;21.60;;;15.20;94.40;;;;;;5003380;28;20485;-75
2021/06/08 02:31:14;;;;;;;29.63;22.30;;;15.10;95.00;;;;;;4994097;28;20814;-75
2021/06/08 02:33:41;;;;;;;29.67;21.60;;;15.10;95.50;;;;;;4993376;28;20532;-75
2021/06/08 02:36:08;;;;;;;27.55;20.08;;;15.20;94.20;;;;;;5013476;28;20377;-74
2021/06/08 02:38:35;;;;;;;27.15;20.42;;;15.30;92.80;;;;;;4996373;28;20383;-74
2021/06/08 02:41:04;;;;;;;29.48;19.83;;;15.40;92.20;;;;;;4993489;28;20448;-75
2021/06/08 02:43:31;;;;;;;27.90;19.92;;;15.30;91.70;;;;;;5008059;28;20412;-75
2021/06/08 02:45:58;;;;;;;28.40;19.27;;;15.30;91.30;;;;;;5013281;28;20776;-74
2021/06/08 02:48:26;;;;;;;29.40;20.05;;;15.30;90.90;;;;;;5013363;28;20740;-75
2021/06/08 02:50:53;;;;;;;27.70;19.48;;;15.20;91.30;;;;;;4995057;28;20967;-74
2021/06/08 02:53:21;;;;;;;27.02;20.13;;;15.10;92.80;;;;;;5012652;28;20385;-74
2021/06/08 02:55:47;;;;;;;27.60;19.90;;;15.00;94.40;;;;;;4995019;28;20453;-73
2021/06/08 02:58:14;;;;;;;26.15;19.52;;;15.00;94.10;;;;;;5001769;28;20394;-74
2021/06/08 03:00:40;;;;;;;25.05;19.67;;;15.10;93.90;;;;;;4991830;28;20398;-74
2021/06/08 03:03:08;;;;;;;25.85;19.60;;;15.00;93.70;;;;;;4991611;28;20394;-74
2021/06/08 03:05:41;;;;;;;29.50;20.98;;;15.00;93.10;;;;;;4987776;28;20405;-75
2021/06/08 03:08:31;;;;;;;26.98;20.48;;;14.90;93.60;;;;;;5009000;28;20518;-74
2021/06/08 03:10:58;;;;;;;28.90;20.92;;;15.00;93.00;;;;;;4996473;28;20413;-77
2021/06/08 03:13:25;;;;;;;26.35;20.05;;;14.80;94.40;;;;;;5012719;28;20480;-78
2021/06/08 03:15:57;;;;;;;28.38;20.90;;;14.70;95.20;;;;;;5014520;28;20424;-77
2021/06/08 03:18:28;;;;;;;29.10;21.23;;;14.80;94.70;;;;;;5015499;28;20412;-76
2021/06/08 03:21:06;;;;;;;28.17;20.98;;;14.90;93.50;;;;;;5014841;28;20462;-75
2021/06/08 03:23:36;;;;;;;31.63;20.85;;;15.00;92.60;;;;;;4995144;28;20957;-78
2021/06/08 03:26:04;;;;;;;32.33;22.67;;;14.80;92.30;;;;;;4995395;28;20762;-76
2021/06/08 03:28:31;;;;;;;31.83;22.65;;;14.70;94.30;;;;;;4992883;28;20549;-76
2021/06/08 03:30:57;;;;;;;30.58;22.42;;;14.60;95.90;;;;;;4992997;28;20410;-77
2021/06/08 03:33:25;;;;;;;27.73;21.15;;;14.60;95.80;;;;;;5007900;28;20572;-77
2021/06/08 03:35:53;;;;;;;28.95;20.70;;;14.70;94.30;;;;;;5011969;28;20383;-75
2021/06/08 03:38:20;;;;;;;30.20;22.40;;;14.60;94.60;;;;;;4996848;28;20386;-75
2021/06/08 03:40:46;;;;;;;31.48;22.65;;;14.50;95.30;;;;;;4992457;28;20395;-75
2021/06/08 03:43:13;;;;;;;32.47;21.92;;;14.30;96.10;;;;;;5006475;28;20412;-75
2021/06/08 03:45:39;;;;;;;33.75;23.73;;;14.30;97.30;;;;;;5013120;28;20393;-74
2021/06/08 03:48:06;;;;;;;31.70;20.70;;;14.30;97.30;;;;;;5011935;28;20397;-75
2021/06/08 03:50:32;;;;;;;27.27;20.90;;;14.60;95.30;;;;;;5012009;28;20499;-76
2021/06/08 03:52:57;;;;;;;25.00;19.47;;;14.70;91.60;;;;;;5011230;28;20832;-76
2021/06/08 03:55:24;;;;;;;31.90;19.80;;;14.80;89.80;;;;;;5012341;28;20777;-76
2021/06/08 03:57:54;;;;;;;35.70;21.58;;;14.70;90.20;;;;;;5012822;28;20392;-76
2021/06/08 04:00:25;;;;;;;27.95;20.52;;;14.60;91.30;;;;;;5011702;28;20969;-75
2021/06/08 04:02:51;;;;;;;28.23;21.42;;;14.50;93.20;;;;;;5000245;28;20441;-76
2021/06/08 04:05:18;;;;;;;34.72;23.20;;;14.40;93.60;;;;;;4993583;28;20382;-74
2021/06/08 04:07:47;;;;;;;29.17;21.33;;;14.50;95.10;;;;;;4993310;28;20390;-77
2021/06/08 04:10:22;;;;;;;28.00;21.52;;;14.80;91.80;;;;;;5020376;28;20412;-77
2021/06/08 04:12:49;;;;;;;29.40;21.38;;;14.90;90.20;;;;;;5000714;28;20398;-76
2021/06/08 04:15:18;;;;;;;31.67;21.67;;;15.10;86.70;;;;;;4993323;28;20398;-76
2021/06/08 04:17:44;;;;;;;30.67;21.58;;;15.10;87.00;;;;;;4994304;28;20462;-76
2021/06/08 04:20:11;;;;;;;39.20;22.30;;;15.30;85.30;;;;;;4993942;28;20867;-76
2021/06/08 04:22:39;;;;;;;29.40;22.13;;;15.30;84.60;;;;;;4985284;28;20476;-75
2021/06/08 04:25:07;;;;;;;27.67;21.50;;;15.10;85.60;;;;;;5013946;28;20480;-77
2021/06/08 04:27:34;;;;;;;29.15;21.45;;;15.30;84.10;;;;;;5017306;28;20416;-76
2021/06/08 04:30:00;;;;;;;27.33;20.48;;;15.30;84.90;;;;;;4997950;28;20392;-76
2021/06/08 04:32:26;;;;;;;32.53;21.88;;;15.50;82.50;;;;;;5001042;28;20470;-77
2021/06/08 04:34:54;;;;;;;30.98;21.58;;;15.40;84.30;;;;;;4999369;28;20405;-76
2021/06/08 04:37:20;;;;;;;34.50;21.67;;;15.50;83.10;;;;;;5000352;28;20791;-77
2021/06/08 04:39:46;;;;;;;29.35;20.20;;;15.70;81.10;;;;;;5007951;28;20400;-75
2021/06/08 04:42:14;;;;;;;29.37;20.80;;;15.80;79.80;;;;;;5013469;28;20398;-76
2021/06/08 04:44:47;;;;;;;26.90;20.33;;;15.90;78.40;;;;;;4999403;28;20815;-75
2021/06/08 04:47:15;;;;;;;28.70;20.80;;;16.00;76.70;;;;;;4985300;28;20431;-75
2021/06/08 04:49:41;;;;;;;33.08;20.23;;;16.10;76.80;;;;;;5010941;28;20393;-75
2021/06/08 04:52:07;;;;;;;31.07;21.20;;;16.10;77.20;;;;;;5001391;28;20501;-75
2021/06/08 04:54:34;;;;;;;31.80;20.45;;;16.20;76.00;;;;;;4990888;28;20397;-76
2021/06/08 04:57:02;;;;;;;32.80;20.50;;;16.40;74.00;;;;;;4998779;28;20399;-74
2021/06/08 04:59:51;;;;;;;29.48;19.50;;;16.60;72.40;;;;;;5010992;28;20389;-74
2021/06/08 05:02:44;;;;;;;31.73;19.95;;;16.80;71.30;;;;;;4997713;28;20468;-75
2021/06/08 05:05:14;;;;;;;23.75;18.33;;;16.90;67.60;;;;;;4973710;28;20407;-74
2021/06/08 05:07:45;;;;;;;27.90;19.05;;;17.10;66.40;;;;;;4991111;28;20406;-74
2021/06/08 05:10:14;;;;;;;30.92;19.77;;;17.20;65.40;;;;;;5009136;28;20826;-74
2021/06/08 05:12:43;;;;;;;26.50;19.85;;;17.30;65.90;;;;;;4997676;28;20961;-75
2021/06/08 05:15:10;;;;;;;26.40;18.77;;;17.30;65.80;;;;;;5010353;28;20385;-75
2021/06/08 05:17:36;;;;;;;114.47;77.90;;;17.50;61.60;;;;;;4997096;28;20497;-75
2021/06/08 05:20:03;;;;;;;67.28;45.85;;;17.60;62.20;;;;;;4991348;28;20390;-75
2021/06/08 05:22:29;;;;;;;26.77;19.35;;;17.80;61.60;;;;;;5000757;28;20392;-76
2021/06/08 05:24:56;;;;;;;26.25;18.45;;;18.10;58.10;;;;;;4992043;28;20841;-75
2021/06/08 05:27:23;;;;;;;26.50;18.30;;;18.20;55.40;;;;;;4985564;28;20853;-75
2021/06/08 05:29:58;;;;;;;27.40;18.93;;;18.40;54.10;;;;;;5010311;28;20461;-75
2021/06/08 05:32:24;;;;;;;26.02;17.88;;;18.40;54.00;;;;;;5001583;28;20402;-75
2021/06/08 05:34:50;;;;;;;28.33;18.98;;;18.50;53.70;;;;;;5010094;28;20400;-75
2021/06/08 05:37:17;;;;;;;24.63;17.40;;;18.60;50.40;;;;;;5005833;28;20392;-76
2021/06/08 05:39:44;;;;;;;26.45;18.90;;;18.60;50.40;;;;;;5014109;28;20385;-76
2021/06/08 05:42:16;;;;;;;24.00;18.38;;;18.60;51.10;;;;;;5000927;28;20478;-76
2021/06/08 05:44:42;;;;;;;25.15;18.33;;;18.60;49.70;;;;;;4994238;28;20405;-76
2021/06/08 05:47:08;;;;;;;22.70;18.30;;;18.60;50.10;;;;;;4996674;28;20410;-76
2021/06/08 05:49:37;;;;;;;28.13;18.15;;;18.60;50.30;;;;;;4996973;28;20390;-76
2021/06/08 05:52:05;;;;;;;21.55;17.48;;;18.60;51.80;;;;;;4995059;28;20404;-75
2021/06/08 05:54:31;;;;;;;25.00;19.35;;;18.70;51.40;;;;;;5006396;28;20481;-76
2021/06/08 05:56:58;;;;;;;24.40;17.92;;;18.90;50.20;;;;;;5011739;28;20829;-76
2021/06/08 05:59:27;;;;;;;24.95;18.33;;;19.20;46.90;;;;;;4994251;28;20481;-77
2021/06/08 06:01:53;;;;;;;29.08;18.95;;;19.10;48.10;;;;;;4979629;28;20403;-76
2021/06/08 06:04:21;;;;;;;27.85;17.30;;;19.20;48.20;;;;;;4994289;28;20843;-76
2021/06/08 06:06:48;;;;;;;25.43;18.43;;;19.30;47.60;;;;;;5003082;28;20447;-77
2021/06/08 06:09:17;;;;;;;27.42;19.05;;;19.30;47.50;;;;;;5005324;28;20483;-75
2021/06/08 06:11:47;;;;;;;25.40;19.30;;;19.30;47.90;;;;;;5008172;28;20412;-76
2021/06/08 06:14:14;;;;;;;27.13;19.43;;;19.40;47.00;;;;;;5009152;28;20393;-76
2021/06/08 06:16:48;;;;;;;30.57;19.60;;;19.30;48.00;;;;;;5010807;28;20480;-77
2021/06/08 06:19:14;;;;;;;32.00;21.38;;;19.20;48.50;;;;;;5010078;28;20413;-76
2021/06/08 06:21:41;;;;;;;31.85;21.60;;;19.00;49.70;;;;;;5005362;28;20489;-75
2021/06/08 06:24:10;;;;;;;32.22;23.73;;;19.10;50.50;;;;;;5010773;28;20431;-76
2021/06/08 06:26:37;;;;;;;32.80;23.52;;;19.20;49.90;;;;;;5006247;28;20398;-76
2021/06/08 06:29:12;;;;;;;36.78;25.63;;;19.30;49.40;;;;;;5004812;28;20397;-76
2021/06/08 06:31:42;;;;;;;35.13;23.93;;;19.30;49.20;;;;;;4999746;28;20414;-76
2021/06/08 06:34:08;;;;;;;34.95;25.33;;;19.50;49.00;;;;;;5013559;28;20396;-76
2021/06/08 06:36:33;;;;;;;31.45;23.73;;;19.70;49.10;;;;;;5012421;28;20949;-77
2021/06/08 06:39:10;;;;;;;33.05;24.65;;;20.00;47.00;;;;;;5011914;28;20411;-76
2021/06/08 06:41:41;;;;;;;35.53;25.88;;;20.20;46.00;;;;;;4999733;28;20405;-75
2021/06/08 06:44:08;;;;;;;31.40;24.08;;;20.40;44.30;;;;;;5003936;28;20404;-74
2021/06/08 06:46:33;;;;;;;40.17;24.87;;;20.50;44.50;;;;;;5004766;28;20905;-75
2021/06/08 06:48:59;;;;;;;39.43;25.33;;;20.70;43.70;;;;;;5004369;28;20432;-77
2021/06/08 06:51:25;;;;;;;38.80;24.70;;;20.80;43.50;;;;;;5018773;28;20405;-77
2021/06/08 06:53:54;;;;;;;40.40;25.98;;;21.10;41.90;;;;;;5012615;28;20401;-77
2021/06/08 06:56:21;;;;;;;34.97;25.10;;;21.20;41.20;;;;;;5002292;28;20492;-76
2021/06/08 06:58:47;;;;;;;29.53;24.10;;;21.40;39.60;;;;;;5005414;28;20441;-76
2021/06/08 07:01:14;;;;;;;41.00;26.87;;;21.40;39.80;;;;;;5017892;28;20382;-78
2021/06/08 07:03:40;;;;;;;38.25;27.17;;;21.20;40.80;;;;;;5010491;28;20412;-75
2021/06/08 07:06:08;;;;;;;41.38;28.67;;;21.10;41.70;;;;;;5011327;28;20469;-76
2021/06/08 07:08:35;;;;;;;36.63;27.55;;;21.10;41.50;;;;;;5013274;28;20546;-77
2021/06/08 07:11:01;;;;;;;43.17;30.92;;;21.10;41.40;;;;;;5006872;28;20500;-76
2021/06/08 07:13:27;;;;;;;37.83;28.90;;;21.30;41.20;;;;;;5008443;28;20424;-75
2021/06/08 07:15:54;;;;;;;40.45;28.38;;;21.20;41.20;;;;;;4999788;28;20402;-76
2021/06/08 07:18:19;;;;;;;39.00;28.05;;;21.20;41.20;;;;;;5006099;28;20404;-77
2021/06/08 07:20:46;;;;;;;39.60;29.00;;;21.00;42.30;;;;;;5005477;28;20840;-76
2021/06/08 07:23:16;;;;;;;41.22;29.30;;;21.10;41.80;;;;;;5002827;28;20396;-77
2021/06/08 07:25:43;;;;;;;39.83;29.67;;;21.40;40.20;;;;;;5011979;28;20486;-76
2021/06/08 07:28:10;;;;;;;43.25;29.50;;;21.20;40.90;;;;;;4982382;28;20774;-75
2021/06/08 07:30:37;;;;;;;40.28;28.38;;;21.10;41.50;;;;;;5008170;28;20799;-76
2021/06/08 07:33:12;;;;;;;38.30;28.73;;;21.40;39.80;;;;;;5003468;28;20481;-75
2021/06/08 07:35:53;;;;;;;39.17;28.60;;;21.30;40.10;;;;;;5021854;28;20424;-77
2021/06/08 07:38:28;;;;;;;44.25;28.55;;;21.10;42.20;;;;;;5019704;28;20382;-76
2021/06/08 07:41:00;;;;;;;39.87;27.33;;;21.00;41.90;;;;;;5019466;28;20400;-79
2021/06/08 07:43:33;;;;;;;40.60;29.90;;;20.80;43.40;;;;;;5014037;28;20408;-78
2021/06/08 07:46:06;;;;;;;33.77;27.47;;;20.60;45.20;;;;;;5003853;28;20435;-79
2021/06/08 07:48:35;;;;;;;37.00;28.90;;;20.40;45.50;;;;;;5013326;28;20402;-80
2021/06/08 07:51:03;;;;;;;34.67;27.10;;;20.30;46.10;;;;;;4998573;28;20425;-81
2021/06/08 07:53:32;;;;;;;35.28;27.48;;;20.40;46.00;;;;;;5011360;28;20400;-82
2021/06/08 07:56:06;;;;;;;31.85;24.90;;;20.40;45.00;;;;;;5016107;28;20472;-83
2021/06/08 07:58:32;;;;;;;35.05;26.00;;;20.50;45.30;;;;;;5017146;28;20449;-77
2021/06/08 08:00:59;;;;;;;39.80;26.52;;;20.90;43.50;;;;;;5009940;28;20897;-78
2021/06/08 08:03:27;;;;;;;36.03;25.30;;;20.90;42.20;;;;;;5018502;28;20544;-82
2021/06/08 08:06:11;;;;;;;34.45;24.90;;;20.90;41.70;;;;;;5011106;28;20388;-78
2021/06/08 08:08:37;;;;;;;34.22;24.45;;;20.80;40.40;;;;;;5005696;28;20445;-81
2021/06/08 08:11:22;;;;;;;36.05;25.75;;;20.70;41.80;;;;;;5006456;28;20406;-81
2021/06/08 08:13:50;;;;;;;34.60;22.45;;;20.60;41.50;;;;;;5000857;28;20645;-80
2021/06/08 08:16:17;;;;;;;28.67;21.80;;;20.70;39.80;;;;;;4992891;28;20459;-81
2021/06/08 08:18:43;;;;;;;29.70;21.33;;;20.80;38.10;;;;;;5013249;28;20429;-81
2021/06/08 08:21:12;;;;;;;31.33;22.33;;;20.80;37.90;;;;;;5026516;28;20392;-77
2021/06/08 08:23:41;;;;;;;29.67;22.30;;;20.90;37.50;;;;;;5026231;28;20393;-79
2021/06/08 08:26:09;;;;;;;34.28;25.63;;;21.10;38.00;;;;;;4999617;28;20419;-76
2021/06/08 08:28:37;;;;;;;35.75;26.27;;;21.40;37.80;;;;;;5001510;28;20481;-77
2021/06/08 08:31:05;;;;;;;34.70;25.70;;;21.40;36.80;;;;;;5009714;28;20416;-79
2021/06/08 08:33:47;;;;;;;33.30;24.60;;;21.30;38.30;;;;;;4954094;28;20429;-80
2021/06/08 08:36:14;;;;;;;32.10;23.93;;;21.60;38.00;;;;;;5011936;28;20428;-78
2021/06/08 08:38:40;;;;;;;30.83;20.73;;;21.70;36.50;;;;;;5013693;28;20404;-77
2021/06/08 08:41:06;;;;;;;30.02;21.50;;;21.90;34.00;;;;;;5000177;28;20389;-81
2021/06/08 08:43:32;;;;;;;30.70;23.00;;;22.00;33.90;;;;;;5011392;28;20447;-81
2021/06/08 08:45:58;;;;;;;29.30;23.25;;;22.30;32.60;;;;;;4983160;28;20414;-79
2021/06/08 08:48:24;;;;;;;23.63;19.25;;;22.30;31.90;;;;;;5000973;28;20417;-78
2021/06/08 08:50:50;;;;;;;26.10;18.73;;;22.40;32.10;;;;;;5019265;28;20420;-81
2021/06/08 08:53:19;;;;;;;24.67;18.30;;;23.00;30.50;;;;;;5005464;28;20397;-79
2021/06/08 08:55:45;;;;;;;21.15;17.20;;;23.60;26.90;;;;;;5021086;28;20467;-79
2021/06/08 08:58:12;;;;;;;24.02;16.30;;;23.90;23.80;;;;;;5003865;28;20395;-78
2021/06/08 09:00:38;;;;;;;16.38;11.48;;;24.10;23.80;;;;;;5018290;28;20439;-79
2021/06/08 09:03:05;;;;;;;8.52;6.45;;;24.60;20.00;;;;;;4999491;28;20793;-81
2021/06/08 09:05:35;;;;;;;13.43;10.55;;;24.90;16.80;;;;;;5014520;28;20437;-76
2021/06/08 09:08:03;;;;;;;14.13;10.70;;;24.70;17.50;;;;;;5013021;28;20404;-78
2021/06/08 09:10:30;;;;;;;12.57;9.40;;;24.50;18.10;;;;;;5005370;28;20417;-79
2021/06/08 09:12:56;;;;;;;13.38;9.75;;;24.20;18.20;;;;;;5015743;28;20400;-78
2021/06/08 09:15:21;;;;;;;14.73;10.73;;;23.70;18.40;;;;;;5009575;28;20862;-76
2021/06/08 09:17:51;;;;;;;12.73;10.52;;;23.50;19.60;;;;;;4982790;28;20391;-79
2021/06/08 09:20:23;;;;;;;14.27;10.57;;;23.60;19.80;;;;;;5008076;28;20483;-79
2021/06/08 09:22:50;;;;;;;12.15;9.63;;;23.70;20.00;;;;;;5001017;28;20427;-78
2021/06/08 09:25:34;;;;;;;15.98;11.30;;;23.60;19.40;;;;;;5001237;28;20402;-78
2021/06/08 09:28:21;;;;;;;14.85;12.15;;;23.50;19.90;;;;;;5017586;28;20762;-79
2021/06/08 09:31:19;;;;;;;22.73;16.73;;;23.80;22.00;;;;;;5017724;28;20476;-78
2021/06/08 09:33:45;;;;;;;23.20;17.67;;;23.60;23.40;;;;;;5019568;28;20381;-77
2021/06/08 09:36:19;;;;;;;21.70;16.73;;;23.60;23.80;;;;;;5024697;28;20424;-77
2021/06/08 09:38:52;;;;;;;20.98;16.00;;;24.00;23.40;;;;;;5023760;28;20395;-76
2021/06/08 09:41:25;;;;;;;20.90;13.30;;;24.10;22.00;;;;;;5019894;28;20404;-76
2021/06/08 09:43:55;;;;;;;16.60;12.48;;;24.40;19.90;;;;;;4990001;28;20402;-77
2021/06/08 09:46:22;;;;;;;19.35;14.05;;;24.80;18.10;;;;;;4977722;28;20859;-79
2021/06/08 09:48:56;;;;;;;15.82;13.05;;;25.00;18.10;;;;;;5009917;28;20396;-78
2021/06/08 09:51:24;;;;;;;16.73;13.43;;;25.50;17.60;;;;;;5017268;28;20397;-78
2021/06/08 09:53:50;;;;;;;15.43;13.80;;;25.60;16.60;;;;;;5019584;28;20398;-78
2021/06/08 09:56:17;;;;;;;15.35;13.10;;;25.50;16.70;;;;;;5018865;28;20392;-77
2021/06/08 09:58:53;;;;;;;18.77;14.47;;;25.50;16.60;;;;;;5001982;28;20419;-78
2021/06/08 10:01:22;;;;;;;16.40;12.38;;;25.30;16.70;;;;;;5020775;28;20411;-78
2021/06/08 10:04:01;;;;;;;18.15;14.80;;;25.70;17.30;;;;;;5023288;28;20570;-80
2021/06/08 10:06:41;;;;;;;15.90;13.93;;;25.80;16.20;;;;;;5014917;28;20397;-78
2021/06/08 10:09:15;;;;;;;18.73;14.00;;;25.90;15.60;;;;;;5008389;28;20399;-76
2021/06/08 10:11:42;;;;;;;19.95;14.27;;;26.10;15.90;;;;;;5021173;28;20413;-78
2021/06/08 10:14:20;;;;;;;16.15;12.48;;;25.90;15.70;;;;;;5001450;28;20421;-76
2021/06/08 10:16:59;;;;;;;12.82;11.35;;;26.40;14.40;;;;;;5017269;28;20385;-77
2021/06/08 10:19:27;;;;;;;13.63;11.93;;;26.70;14.10;;;;;;5004297;28;20699;-78
2021/06/08 10:21:53;;;;;;;15.43;13.15;;;26.80;12.90;;;;;;5002683;28;20401;-77
2021/06/08 10:24:22;;;;;;;18.42;13.82;;;27.00;13.40;;;;;;5007446;28;20919;-78
2021/06/08 10:26:52;;;;;;;19.50;15.43;;;27.10;12.60;;;;;;5014250;28;21126;-78
2021/06/08 10:29:20;;;;;;;18.95;16.25;;;26.70;13.00;;;;;;5021968;28;20397;-76
2021/06/08 10:31:46;;;;;;;20.55;16.30;;;26.20;14.00;;;;;;5002383;28;20781;-76
2021/06/08 10:34:12;;;;;;;22.00;14.10;;;26.40;14.20;;;;;;5020585;28;20460;-77
2021/06/08 10:36:40;;;;;;;16.30;14.60;;;26.70;14.00;;;;;;5023395;28;20479;-75
2021/06/08 10:39:08;;;;;;;17.48;14.65;;;27.00;13.70;;;;;;5025363;28;20439;-79
2021/06/08 10:41:36;;;;;;;17.23;13.77;;;27.10;12.50;;;;;;5021612;28;20396;-76
2021/06/08 10:44:05;;;;;;;19.95;14.50;;;26.70;12.90;;;;;;5025580;28;20581;-78
2021/06/08 10:46:35;;;;;;;17.50;15.57;;;26.50;13.60;;;;;;5020509;28;20405;-77
2021/06/08 10:49:03;;;;;;;18.77;16.60;;;26.70;14.00;;;;;;4998855;28;20404;-78
2021/06/08 10:51:30;;;;;;;19.30;14.45;;;26.80;13.20;;;;;;5017675;28;20420;-77
2021/06/08 10:53:57;;;;;;;19.00;14.70;;;27.10;13.60;;;;;;4999459;28;20411;-76
2021/06/08 10:56:35;;;;;;;18.40;15.20;;;27.30;13.00;;;;;;5015034;28;20388;-77
2021/06/08 10:59:03;;;;;;;19.10;15.07;;;27.40;12.20;;;;;;4997556;28;20821;-77
2021/06/08 11:01:38;;;;;;;23.83;16.55;;;27.00;12.50;;;;;;5009074;28;20396;-78
2021/06/08 11:04:28;;;;;;;19.80;16.47;;;26.50;12.70;;;;;;5014293;28;20416;-77
2021/06/08 11:06:56;;;;;;;18.08;15.48;;;26.60;12.70;;;;;;4995932;28;20403;-77
2021/06/08 11:09:26;;;;;;;23.30;20.70;;;27.00;12.40;;;;;;5008119;28;20465;-77
2021/06/08 11:12:21;;;;;;;22.52;19.25;;;27.10;11.20;;;;;;5012526;28;20758;-77
2021/06/08 11:14:55;;;;;;;24.70;17.97;;;27.50;11.20;;;;;;4997373;28;20446;-77
2021/06/08 11:17:32;;;;;;;21.90;19.58;;;27.90;11.40;;;;;;4995983;28;20392;-77
2021/06/08 11:20:15;;;;;;;24.42;21.20;;;28.40;10.00;;;;;;5015053;28;20469;-78
2021/06/08 11:22:40;;;;;;;25.88;22.13;;;28.30;10.30;;;;;;4992877;28;20635;-76
2021/06/08 11:25:27;;;;;;;22.37;19.53;;;28.30;10.00;;;;;;5013927;28;20403;-77
2021/06/08 11:28:07;;;;;;;23.03;20.00;;;28.10;10.60;;;;;;5003464;28;20420;-76
2021/06/08 11:30:38;;;;;;;23.55;21.10;;;28.10;11.10;;;;;;5019349;28;20416;-77
2021/06/08 11:33:08;;;;;;;25.63;22.83;;;26.90;12.40;;;;;;5016089;28;20393;-76
2021/06/08 11:35:41;;;;;;;25.67;22.98;;;26.40;13.30;;;;;;5004710;28;20566;-77
2021/06/08 11:38:10;;;;;;;27.77;24.27;;;26.20;13.90;;;;;;5020861;28;20395;-77
2021/06/08 11:40:37;;;;;;;24.80;21.83;;;26.10;14.60;;;;;;5014903;28;20741;-77
2021/06/08 11:43:10;;;;;;;26.10;23.27;;;26.50;13.40;;;;;;5013768;28;20931;-77
2021/06/08 11:45:44;;;;;;;26.52;23.73;;;26.50;13.90;;;;;;5000665;28;20509;-78
2021/06/08 11:48:40;;;;;;;27.50;24.03;;;26.30;14.20;;;;;;4996599;28;20402;-77
2021/06/08 11:51:15;;;;;;;27.60;24.70;;;26.00;14.10;;;;;;4986139;28;20751;-77
2021/06/08 11:54:13;;;;;;;28.08;24.70;;;25.60;14.70;;;;;;5001573;28;20392;-77
2021/06/08 11:56:55;;;;;;;29.85;26.67;;;25.40;15.90;;;;;;4979845;28;20496;-78
2021/06/08 11:59:55;;;;;;;29.08;25.98;;;25.60;15.30;;;;;;5018380;28;20397;-77
2021/06/08 12:02:51;;;;;;;30.20;24.90;;;25.70;14.60;;;;;;5019784;28;20615;-77
2021/06/08 12:05:24;;;;;;;28.73;25.73;;;25.80;14.70;;;;;;4980368;28;20419;-77
2021/06/08 12:08:11;;;;;;;33.05;26.90;;;26.00;14.30;;;;;;5006566;28;20406;-78
2021/06/08 12:10:42;;;;;;;30.80;26.33;;;26.00;13.70;;;;;;5000454;28;20446;-77
2021/06/08 12:13:09;;;;;;;30.85;27.73;;;26.10;14.10;;;;;;5008604;28;20890;-78
2021/06/08 12:15:41;;;;;;;29.77;26.80;;;26.40;13.80;;;;;;5005303;28;20857;-78
2021/06/08 12:18:10;;;;;;;31.80;28.50;;;26.90;11.20;;;;;;5013827;28;20397;-77
2021/06/08 12:20:41;;;;;;;31.92;28.65;;;26.90;10.80;;;;;;5012883;28;20785;-77
2021/06/08 12:23:07;;;;;;;31.30;28.15;;;26.80;10.80;;;;;;5011511;28;20392;-77
2021/06/08 12:25:34;;;;;;;30.70;27.67;;;27.10;10.40;;;;;;5014857;28;20389;-77
2021/06/08 12:28:00;;;;;;;30.15;27.08;;;27.50;9.90;;;;;;4997022;28;20408;-78
2021/06/08 12:30:27;;;;;;;31.35;28.05;;;27.30;10.60;;;;;;4994082;28;20760;-77
2021/06/08 12:33:04;;;;;;;27.17;24.38;;;27.60;11.00;;;;;;5012505;28;20430;-78
2021/06/08 12:35:39;;;;;;;29.03;25.90;;;28.00;10.30;;;;;;4994669;28;20419;-76
2021/06/08 12:38:14;;;;;;;30.13;27.08;;;27.90;10.10;;;;;;5000908;28;20397;-77
2021/06/08 12:40:40;;;;;;;30.35;27.05;;;28.10;9.10;;;;;;5010098;28;20397;-77
2021/06/08 12:43:07;;;;;;;30.07;25.20;;;27.90;8.70;;;;;;4996707;28;20424;-77
2021/06/08 12:45:34;;;;;;;24.63;22.13;;;28.10;9.30;;;;;;4999157;28;20392;-76